Weather at Hatuey Airport

Public forecast

Using degrees Celsius for public forecast. Weather courtesy of forecast.io.

Closest aviation weather report (METAR) to Hatuey Airport

Closest report is Ignacio Agramonte International Airport, 21.4 nm (39.6 km) NW. Retrieved 2021/06/21 23:50 UTC (18 minutes ago):

MUCM 212350Z 03007KT 9000 FEW020 26/20 Q1016

Closest aviation forecast (TAF) to Hatuey Airport

Closest forecast is Ignacio Agramonte International Airport, 21.4 nm (39.6 km) NW. Retrieved 2021-06-22 00:03 UTC (5 minutes ago):

TAF TAF MUCM 212300Z 2200/2224 VRB03KT 9000 SCT018 BECMG 2202/2204 FEW060